Time;durP1;ratioP1;P1;durP2;ratioP2;P2;SDS_P1;SDS_P2;PMS_P1;PMS_P2;Temp;Humidity;BMP_temperature;BMP_pressure;BME280_temperature;BME280_humidity;BME280_pressure;Samples;Min_cycle;Max_cycle;Signal;HPM_P1;HPM_P2
2021/03/10 00:01:41;;;;;;;60.28;35.72;;;2.90;99.90;;;;;;5038006;28;20531;-90
2021/03/10 00:04:09;;;;;;;59.35;35.28;;;2.90;99.90;;;;;;5054674;28;20074;-90
2021/03/10 00:06:34;;;;;;;62.00;33.63;;;2.80;99.90;;;;;;5037474;28;20424;-91
2021/03/10 00:09:00;;;;;;;58.40;35.25;;;2.80;99.90;;;;;;5037540;28;20024;-91
2021/03/10 00:11:26;;;;;;;58.90;35.55;;;2.90;99.90;;;;;;5037537;28;20035;-91
2021/03/10 00:13:51;;;;;;;62.28;36.97;;;3.00;99.90;;;;;;5037473;28;20051;-91
2021/03/10 00:16:17;;;;;;;56.63;35.67;;;2.70;99.90;;;;;;5053992;28;20469;-91
2021/03/10 00:18:52;;;;;;;61.90;36.20;;;2.60;99.90;;;;;;5037309;28;20095;-91
2021/03/10 00:21:18;;;;;;;60.38;36.08;;;2.80;99.90;;;;;;5037587;28;20033;-90
2021/03/10 00:23:44;;;;;;;58.70;34.95;;;2.90;99.90;;;;;;5037549;28;20462;-91
2021/03/10 00:26:10;;;;;;;62.53;36.10;;;3.00;99.90;;;;;;5037279;28;20040;-91
2021/03/10 00:28:36;;;;;;;63.22;35.80;;;3.00;99.90;;;;;;5037244;28;20499;-91
2021/03/10 00:31:02;;;;;;;60.83;36.80;;;3.00;99.90;;;;;;5040722;28;20035;-90
2021/03/10 00:33:27;;;;;;;60.05;36.80;;;3.00;99.90;;;;;;5041232;28;20035;-90
2021/03/10 00:35:53;;;;;;;64.63;38.33;;;3.00;99.90;;;;;;5041526;28;20396;-90
2021/03/10 00:38:24;;;;;;;49.92;29.25;;;2.90;99.90;;;;;;5041889;28;20498;-90
2021/03/10 00:40:50;;;;;;;63.30;37.80;;;2.90;99.90;;;;;;5041139;28;20078;-91
2021/03/10 00:43:16;;;;;;;61.67;36.45;;;2.80;99.90;;;;;;5041355;28;20024;-90
2021/03/10 00:45:41;;;;;;;67.22;37.53;;;3.00;99.90;;;;;;5039663;28;20020;-91
2021/03/10 00:48:07;;;;;;;59.72;35.33;;;3.00;99.90;;;;;;5040900;28;20082;-91
2021/03/10 00:50:33;;;;;;;59.08;36.17;;;3.00;99.90;;;;;;5041250;28;20020;-91
2021/03/10 00:53:17;;;;;;;62.13;34.85;;;3.00;99.90;;;;;;5060126;28;20032;-91
2021/03/10 00:55:42;;;;;;;67.50;37.88;;;2.90;99.90;;;;;;5040721;28;20082;-90
2021/03/10 00:58:11;;;;;;;62.78;37.85;;;2.70;99.90;;;;;;5040639;28;20056;-90
2021/03/10 01:00:37;;;;;;;63.70;39.40;;;2.50;99.90;;;;;;5040802;28;20025;-91
2021/03/10 01:03:03;;;;;;;66.78;39.83;;;2.50;99.90;;;;;;5040702;28;20065;-90
2021/03/10 01:05:29;;;;;;;63.92;38.20;;;2.60;99.90;;;;;;5040689;28;20017;-90
2021/03/10 01:07:54;;;;;;;61.25;35.88;;;2.60;99.90;;;;;;5040535;28;20378;-90
2021/03/10 01:10:20;;;;;;;64.97;38.50;;;2.60;99.90;;;;;;5057553;28;20397;-90
2021/03/10 01:12:46;;;;;;;63.40;38.65;;;2.40;99.90;;;;;;5040459;28;20389;-90
2021/03/10 01:15:15;;;;;;;74.70;42.78;;;2.40;99.90;;;;;;5040141;28;20033;-90
2021/03/10 01:17:41;;;;;;;66.93;38.65;;;2.30;99.90;;;;;;5040351;28;20155;-90
2021/03/10 01:20:14;;;;;;;71.65;39.30;;;2.40;99.90;;;;;;5040461;28;20536;-90
2021/03/10 01:22:40;;;;;;;70.65;40.90;;;2.20;99.90;;;;;;5040508;28;20038;-90
2021/03/10 01:25:07;;;;;;;69.30;39.08;;;2.20;99.90;;;;;;5040224;28;20075;-91
2021/03/10 01:27:33;;;;;;;78.65;42.60;;;2.10;99.90;;;;;;5040483;28;20040;-90
2021/03/10 01:29:58;;;;;;;72.03;40.13;;;2.20;99.90;;;;;;5040526;28;20021;-90
2021/03/10 01:32:24;;;;;;;72.10;40.83;;;2.10;99.90;;;;;;5040296;28;20024;-90
2021/03/10 01:34:50;;;;;;;78.45;42.28;;;2.00;99.90;;;;;;5039961;28;20116;-91
2021/03/10 01:37:17;;;;;;;77.30;43.42;;;2.00;99.90;;;;;;5040165;28;20091;-91
2021/03/10 01:39:42;;;;;;;76.25;44.40;;;2.00;99.90;;;;;;5061077;28;20039;-91
2021/03/10 01:42:08;;;;;;;75.55;43.25;;;1.90;99.90;;;;;;5040359;28;20029;-91
2021/03/10 01:44:35;;;;;;;75.07;42.53;;;2.00;99.90;;;;;;5038614;28;20017;-90
2021/03/10 01:47:02;;;;;;;72.78;40.85;;;1.90;99.90;;;;;;5039911;28;20063;-90
2021/03/10 01:49:28;;;;;;;79.50;43.63;;;2.00;99.90;;;;;;5039644;28;20028;-90
2021/03/10 01:51:55;;;;;;;80.03;46.38;;;2.00;99.90;;;;;;5040327;28;20021;-91
2021/03/10 01:54:25;;;;;;;84.25;46.97;;;2.00;99.90;;;;;;5040015;28;20035;-90
2021/03/10 01:56:51;;;;;;;61.50;35.28;;;2.00;99.90;;;;;;5040011;28;20020;-91
2021/03/10 01:59:17;;;;;;;80.97;45.28;;;2.10;99.90;;;;;;5039950;28;20028;-90
2021/03/10 02:01:43;;;;;;;76.07;42.97;;;2.10;99.90;;;;;;5039791;28;20481;-91
2021/03/10 02:04:10;;;;;;;82.35;45.20;;;2.10;99.90;;;;;;5039457;28;20509;-90
2021/03/10 02:06:41;;;;;;;82.43;45.90;;;2.10;99.90;;;;;;5039641;28;20630;-91
2021/03/10 02:09:24;;;;;;;83.20;47.80;;;2.10;99.90;;;;;;5039476;28;20028;-91
2021/03/10 02:11:58;;;;;;;86.32;46.22;;;2.10;99.90;;;;;;5039568;28;20453;-90
2021/03/10 02:14:33;;;;;;;85.80;46.30;;;2.10;99.90;;;;;;5039287;28;20031;-91
2021/03/10 02:17:03;;;;;;;84.30;48.45;;;2.00;99.90;;;;;;5039258;28;20059;-91
2021/03/10 02:19:38;;;;;;;81.68;46.45;;;2.10;99.90;;;;;;5055996;28;20027;-90
2021/03/10 02:22:27;;;;;;;91.43;50.00;;;2.10;99.90;;;;;;5039373;28;20029;-91
2021/03/10 02:25:13;;;;;;;86.13;48.55;;;2.20;99.90;;;;;;5038815;28;20119;-90
2021/03/10 02:27:53;;;;;;;89.00;47.55;;;2.10;99.90;;;;;;5039011;28;20028;-90
2021/03/10 02:30:29;;;;;;;87.13;50.53;;;2.00;99.90;;;;;;5039097;28;20029;-90
2021/03/10 02:32:57;;;;;;;89.10;49.92;;;2.10;99.90;;;;;;5039294;28;20397;-91
2021/03/10 02:35:25;;;;;;;88.70;49.35;;;2.20;99.90;;;;;;5038802;28;20119;-90
2021/03/10 02:37:56;;;;;;;94.72;52.20;;;2.10;99.90;;;;;;5038673;28;20127;-91
2021/03/10 02:40:24;;;;;;;91.68;52.28;;;2.20;99.90;;;;;;5039029;28;20025;-91
2021/03/10 02:42:52;;;;;;;91.63;50.05;;;2.40;99.90;;;;;;5039101;28;20025;-90
2021/03/10 02:45:25;;;;;;;84.78;48.83;;;2.50;99.90;;;;;;5037719;28;20028;-92
2021/03/10 02:47:51;;;;;;;87.18;49.63;;;2.70;99.90;;;;;;5038707;28;20024;-91
2021/03/10 02:50:17;;;;;;;91.15;51.97;;;2.70;99.90;;;;;;5038949;28;20077;-91
2021/03/10 02:52:44;;;;;;;91.20;49.97;;;2.80;99.90;;;;;;5038155;28;20488;-91
2021/03/10 02:55:10;;;;;;;85.97;49.05;;;2.70;99.90;;;;;;5056472;28;20027;-91
2021/03/10 02:57:36;;;;;;;90.05;48.80;;;2.50;99.90;;;;;;5039953;28;20111;-91
2021/03/10 03:00:12;;;;;;;93.95;51.33;;;2.50;99.90;;;;;;5039446;28;20063;-91
2021/03/10 03:02:39;;;;;;;94.75;51.15;;;2.40;99.90;;;;;;5039216;28;20035;-92
2021/03/10 03:05:07;;;;;;;93.63;53.22;;;2.30;99.90;;;;;;5038487;28;20103;-90
2021/03/10 03:07:33;;;;;;;101.43;55.40;;;2.30;99.90;;;;;;5039040;28;20043;-91
2021/03/10 03:10:07;;;;;;;99.50;54.92;;;2.20;99.90;;;;;;5038431;28;20396;-91
2021/03/10 03:12:34;;;;;;;94.28;52.83;;;2.20;99.90;;;;;;5038511;28;20066;-91
2021/03/10 03:15:00;;;;;;;101.50;55.53;;;2.30;99.90;;;;;;5054581;28;20050;-91
2021/03/10 03:17:29;;;;;;;105.85;56.38;;;2.30;99.90;;;;;;5038260;28;20107;-91
2021/03/10 03:19:55;;;;;;;109.63;56.30;;;2.30;99.90;;;;;;5038377;28;20031;-91
2021/03/10 03:22:21;;;;;;;98.80;54.17;;;2.40;99.90;;;;;;5038253;28;20017;-91
2021/03/10 03:24:50;;;;;;;95.70;54.00;;;2.50;99.90;;;;;;5037813;28;20024;-91
2021/03/10 03:27:25;;;;;;;108.47;56.33;;;2.60;99.90;;;;;;5038028;28;20021;-91
2021/03/10 03:30:04;;;;;;;107.10;57.05;;;2.60;99.90;;;;;;5037914;28;20027;-91
2021/03/10 03:32:33;;;;;;;100.95;55.65;;;2.60;99.90;;;;;;5038400;28;20544;-90
2021/03/10 03:34:59;;;;;;;98.47;55.15;;;2.60;99.90;;;;;;5037833;28;20081;-91
2021/03/10 03:37:28;;;;;;;108.78;58.92;;;2.60;99.90;;;;;;5038235;28;20077;-91
2021/03/10 03:39:54;;;;;;;101.55;56.35;;;2.60;99.90;;;;;;5037844;28;20027;-90
2021/03/10 03:42:20;;;;;;;104.60;54.92;;;2.70;99.90;;;;;;5037981;28;20029;-91
2021/03/10 03:44:47;;;;;;;96.57;54.10;;;2.70;99.90;;;;;;5036146;28;20036;-91
2021/03/10 03:47:17;;;;;;;97.35;52.42;;;2.90;99.90;;;;;;5038295;28;20020;-90
2021/03/10 03:49:48;;;;;;;101.30;57.20;;;2.70;99.90;;;;;;5054625;28;20037;-90
2021/03/10 03:52:14;;;;;;;100.60;56.80;;;2.60;99.90;;;;;;5037972;28;20028;-90
2021/03/10 03:54:41;;;;;;;109.00;58.85;;;2.60;99.90;;;;;;5037703;28;20032;-90
2021/03/10 03:57:09;;;;;;;100.82;57.70;;;2.50;99.90;;;;;;5038234;28;20111;-90
2021/03/10 03:59:36;;;;;;;103.15;56.25;;;2.40;99.90;;;;;;5037809;28;20428;-91
2021/03/10 04:02:02;;;;;;;103.13;59.55;;;2.40;99.90;;;;;;5038071;28;20023;-90
2021/03/10 04:04:28;;;;;;;102.93;59.25;;;2.60;99.90;;;;;;5040221;28;20477;-90
2021/03/10 04:06:53;;;;;;;101.65;56.33;;;2.60;99.90;;;;;;5041989;28;20029;-90
2021/03/10 04:09:19;;;;;;;100.72;56.30;;;2.60;99.90;;;;;;5058711;28;20115;-91
2021/03/10 04:11:46;;;;;;;103.28;56.45;;;2.70;99.90;;;;;;5041896;28;20031;-91
2021/03/10 04:14:15;;;;;;;100.40;56.08;;;2.80;99.90;;;;;;5042306;28;20481;-91
2021/03/10 04:16:41;;;;;;;109.18;60.20;;;2.80;99.90;;;;;;5042280;28;20025;-91
2021/03/10 04:19:15;;;;;;;104.88;56.75;;;2.70;99.90;;;;;;5042670;28;20044;-90
2021/03/10 04:21:43;;;;;;;101.50;57.20;;;2.80;99.90;;;;;;5044117;28;20025;-90
2021/03/10 04:24:08;;;;;;;105.25;55.67;;;2.80;99.90;;;;;;5042863;28;20484;-91
2021/03/10 04:26:34;;;;;;;100.18;54.95;;;2.80;99.90;;;;;;5047398;28;20043;-90
2021/03/10 04:29:00;;;;;;;103.32;55.13;;;2.70;99.90;;;;;;5068401;28;20021;-90
2021/03/10 04:31:25;;;;;;;103.38;58.08;;;2.70;99.90;;;;;;5081017;28;20009;-92
2021/03/10 04:33:51;;;;;;;105.45;54.63;;;2.60;99.90;;;;;;5063122;28;20047;-91
2021/03/10 04:36:20;;;;;;;102.30;57.88;;;2.50;99.90;;;;;;5063090;28;20028;-91
2021/03/10 04:38:45;;;;;;;100.07;57.85;;;2.40;99.90;;;;;;5062554;28;20032;-90
2021/03/10 04:41:11;;;;;;;104.28;55.97;;;2.40;99.90;;;;;;5060691;28;20055;-92
2021/03/10 04:43:37;;;;;;;102.25;56.85;;;2.30;99.90;;;;;;5041095;28;20029;-91
2021/03/10 04:46:03;;;;;;;103.93;57.13;;;2.30;99.90;;;;;;5041573;28;20025;-91
2021/03/10 04:48:28;;;;;;;103.13;58.10;;;2.30;99.90;;;;;;5041617;28;20028;-91
2021/03/10 04:50:54;;;;;;;105.85;57.75;;;2.40;99.90;;;;;;5041164;28;20515;-91
2021/03/10 04:53:20;;;;;;;108.93;58.33;;;2.50;99.90;;;;;;5041205;28;20652;-91
2021/03/10 04:55:48;;;;;;;106.03;56.53;;;2.40;99.90;;;;;;5041117;28;20107;-91
2021/03/10 04:58:14;;;;;;;104.05;57.63;;;2.40;99.90;;;;;;5040696;28;20031;-91
2021/03/10 05:00:39;;;;;;;105.80;57.60;;;2.50;99.90;;;;;;5040947;28;20025;-91
2021/03/10 05:03:05;;;;;;;100.82;56.42;;;2.50;99.90;;;;;;5040808;28;20120;-91
2021/03/10 05:05:31;;;;;;;101.97;53.92;;;2.60;99.90;;;;;;5040736;28;20111;-91
2021/03/10 05:07:57;;;;;;;102.72;56.42;;;2.60;99.90;;;;;;5040615;28;20111;-91
2021/03/10 05:10:25;;;;;;;97.50;54.65;;;2.40;99.90;;;;;;5040879;28;20020;-90
2021/03/10 05:12:54;;;;;;;105.75;58.08;;;2.40;99.90;;;;;;5040861;28;20035;-91
2021/03/10 05:15:22;;;;;;;109.97;57.67;;;2.40;99.90;;;;;;5040264;28;20033;-91
2021/03/10 05:17:48;;;;;;;100.25;55.72;;;2.50;99.90;;;;;;5040329;28;20119;-91
2021/03/10 05:20:14;;;;;;;135.68;57.45;;;2.60;99.90;;;;;;5040822;28;20024;-90
2021/03/10 05:22:42;;;;;;;104.43;55.00;;;2.50;99.90;;;;;;5039967;28;20035;-91
2021/03/10 05:25:11;;;;;;;106.60;57.00;;;2.60;99.90;;;;;;5040210;28;20029;-91
2021/03/10 05:27:37;;;;;;;102.38;55.65;;;2.40;99.90;;;;;;5040326;28;20493;-90
2021/03/10 05:30:07;;;;;;;107.50;56.17;;;2.50;99.90;;;;;;5040355;28;20119;-91
2021/03/10 05:32:33;;;;;;;108.43;59.45;;;2.40;99.90;;;;;;5040341;28;20032;-91
2021/03/10 05:34:58;;;;;;;97.88;56.60;;;2.40;99.90;;;;;;5042422;28;20028;-93
2021/03/10 05:37:27;;;;;;;107.75;57.72;;;2.60;99.90;;;;;;5043508;28;20040;-92
2021/03/10 05:39:53;;;;;;;104.18;54.83;;;2.60;99.90;;;;;;5043291;28;20027;-92
2021/03/10 05:42:19;;;;;;;96.82;55.83;;;2.80;99.90;;;;;;5043876;28;20021;-92
2021/03/10 05:44:59;;;;;;;97.07;54.65;;;2.70;99.90;;;;;;5042961;28;20031;-92
2021/03/10 05:47:24;;;;;;;103.25;54.65;;;2.80;99.90;;;;;;5044015;28;20542;-92
2021/03/10 05:49:50;;;;;;;107.63;56.13;;;2.90;99.90;;;;;;5042729;28;20033;-94
2021/03/10 05:52:16;;;;;;;106.70;57.40;;;2.90;99.90;;;;;;5043587;28;20024;-92
2021/03/10 05:54:45;;;;;;;108.80;58.20;;;2.90;99.90;;;;;;5042657;28;20086;-92
2021/03/10 05:57:12;;;;;;;99.40;52.67;;;2.90;99.90;;;;;;5044004;28;20122;-92
2021/03/10 05:59:38;;;;;;;100.18;53.40;;;2.90;99.90;;;;;;5042606;28;20078;-93
2021/03/10 06:02:06;;;;;;;101.35;55.65;;;3.00;99.90;;;;;;5043435;28;20115;-92
2021/03/10 06:04:40;;;;;;;91.15;51.67;;;2.90;99.90;;;;;;5043221;28;20070;-92
2021/03/10 06:07:26;;;;;;;95.70;53.00;;;2.90;99.90;;;;;;5042471;28;20049;-93
2021/03/10 06:10:04;;;;;;;89.28;50.08;;;3.00;99.90;;;;;;5042148;28;20039;-92
2021/03/10 06:12:54;;;;;;;99.50;51.60;;;3.10;99.90;;;;;;5043207;28;20074;-92
2021/03/10 06:15:20;;;;;;;86.18;48.83;;;3.20;99.90;;;;;;5044739;28;20036;-93
2021/03/10 06:17:50;;;;;;;85.32;48.42;;;3.30;99.90;;;;;;5044414;28;20020;-93
2021/03/10 06:20:26;;;;;;;84.68;51.00;;;3.30;99.90;;;;;;5044303;28;20100;-92
2021/03/10 06:22:54;;;;;;;90.18;50.60;;;3.00;99.90;;;;;;5052656;28;20024;-92
2021/03/10 06:25:23;;;;;;;90.78;51.38;;;3.00;99.90;;;;;;5044341;28;20051;-92
2021/03/10 06:27:52;;;;;;;88.57;47.88;;;3.00;99.90;;;;;;5041191;28;20178;-92
2021/03/10 06:30:30;;;;;;;95.47;51.00;;;3.00;99.90;;;;;;5040603;28;20112;-92
2021/03/10 06:32:59;;;;;;;99.32;51.90;;;2.90;99.90;;;;;;5041535;28;20028;-92
2021/03/10 06:35:29;;;;;;;92.10;51.58;;;2.90;99.90;;;;;;5057461;28;20039;-92
2021/03/10 06:38:16;;;;;;;93.18;49.63;;;3.00;99.90;;;;;;5051520;28;20028;-91
2021/03/10 06:40:59;;;;;;;80.45;47.50;;;3.10;99.90;;;;;;5040392;28;20169;-91
2021/03/10 06:43:41;;;;;;;91.80;49.33;;;3.00;99.90;;;;;;5039871;28;20024;-92
2021/03/10 06:46:20;;;;;;;92.70;49.10;;;2.80;99.90;;;;;;5041180;28;20017;-92
2021/03/10 06:49:00;;;;;;;86.32;46.95;;;3.00;99.90;;;;;;5040944;28;20294;-92
2021/03/10 06:51:32;;;;;;;83.65;48.17;;;3.10;99.90;;;;;;5040850;28;20474;-91
2021/03/10 06:54:01;;;;;;;;;;;3.20;99.90;;;;;;5041375;28;20542;-91
2021/03/10 06:56:30;;;;;;;79.55;44.63;;;3.20;99.90;;;;;;5040540;28;19908;-91
2021/03/10 06:59:08;;;;;;;80.03;44.22;;;3.30;99.90;;;;;;5040743;28;20098;-92
2021/03/10 07:01:45;;;;;;;79.03;46.10;;;3.30;99.90;;;;;;5040678;28;20031;-91
2021/03/10 07:04:13;;;;;;;82.22;46.40;;;3.30;99.90;;;;;;5039986;28;20101;-91
2021/03/10 07:06:41;;;;;;;76.82;43.88;;;3.50;99.90;;;;;;5040452;28;20020;-92
2021/03/10 07:09:22;;;;;;;76.68;42.97;;;3.40;99.90;;;;;;5059495;28;20035;-93
2021/03/10 07:11:48;;;;;;;78.05;44.40;;;3.40;99.90;;;;;;5063687;28;20412;-92
2021/03/10 07:14:29;;;;;;;92.15;45.38;;;3.40;99.90;;;;;;5035387;28;20408;-92
2021/03/10 07:16:59;;;;;;;68.28;42.95;;;3.40;99.90;;;;;;5076528;28;20036;-92
2021/03/10 07:19:25;;;;;;;74.55;42.60;;;3.50;99.90;;;;;;5045922;28;20021;-92
2021/03/10 07:22:17;;;;;;;80.55;44.60;;;3.50;99.90;;;;;;5040157;28;20078;-92
2021/03/10 07:25:04;;;;;;;84.05;44.38;;;3.40;99.90;;;;;;5040471;28;20473;-92
2021/03/10 07:27:58;;;;;;;69.47;40.08;;;3.50;99.90;;;;;;5050604;28;20391;-92
2021/03/10 07:30:59;;;;;;;76.20;40.88;;;3.60;99.90;;;;;;5048309;28;20474;-92
2021/03/10 07:33:28;;;;;;;66.32;39.33;;;3.40;99.90;;;;;;5039379;28;20059;-91
2021/03/10 07:36:02;;;;;;;65.75;38.63;;;3.30;99.90;;;;;;5039075;28;20024;-92
2021/03/10 07:38:34;;;;;;;69.93;39.67;;;3.50;99.90;;;;;;5043503;28;20503;-92
2021/03/10 07:41:06;;;;;;;65.65;37.30;;;3.30;99.90;;;;;;5046387;28;20027;-92
2021/03/10 07:43:50;;;;;;;76.13;41.40;;;3.50;99.90;;;;;;5044125;28;20024;-91
2021/03/10 07:46:30;;;;;;;61.58;36.90;;;3.60;99.90;;;;;;5070079;28;20023;-94
2021/03/10 07:48:58;;;;;;;71.47;37.83;;;3.60;99.90;;;;;;5035550;28;20099;-93
2021/03/10 07:51:32;;;;;;;69.07;38.88;;;3.50;99.90;;;;;;5048793;28;20032;-94
2021/03/10 07:54:00;;;;;;;72.40;40.92;;;3.50;99.90;;;;;;5044297;28;20028;-93
2021/03/10 07:56:31;;;;;;;72.10;39.95;;;3.50;99.90;;;;;;5054511;28;20099;-94
2021/03/10 07:59:11;;;;;;;75.07;39.17;;;3.50;99.90;;;;;;5056580;28;20028;-93
2021/03/10 08:01:38;;;;;;;73.15;40.08;;;3.40;99.90;;;;;;5050498;28;20267;-94
2021/03/10 08:04:12;;;;;;;73.32;40.67;;;3.50;99.90;;;;;;5039982;28;20025;-94
2021/03/10 08:06:52;;;;;;;71.30;39.63;;;3.50;99.90;;;;;;5048713;28;20034;-94
2021/03/10 08:09:37;;;;;;;64.13;38.13;;;3.50;99.90;;;;;;5060888;28;20024;-94
2021/03/10 08:12:08;;;;;;;71.60;39.78;;;3.30;99.90;;;;;;5055393;28;20039;-94
2021/03/10 08:14:45;;;;;;;69.57;41.15;;;3.40;99.90;;;;;;5054840;28;20028;-94
2021/03/10 08:17:25;;;;;;;73.43;41.30;;;3.50;99.90;;;;;;5051226;28;20460;-92
2021/03/10 08:19:56;;;;;;;72.47;40.10;;;3.60;99.90;;;;;;5040971;28;20020;-91
2021/03/10 08:22:27;;;;;;;69.93;40.60;;;3.50;99.90;;;;;;5046788;28;20435;-91
2021/03/10 08:24:54;;;;;;;72.82;41.50;;;3.20;99.90;;;;;;5063986;28;20481;-91
2021/03/10 08:27:34;;;;;;;76.15;41.38;;;3.20;99.90;;;;;;5047656;28;20111;-92
2021/03/10 08:30:01;;;;;;;108.97;43.60;;;3.00;99.90;;;;;;5052560;28;20039;-92
2021/03/10 08:32:30;;;;;;;86.80;42.72;;;3.10;99.90;;;;;;5044429;28;20052;-91
2021/03/10 08:35:05;;;;;;;76.57;41.67;;;3.30;99.90;;;;;;5086974;28;20510;-93
2021/03/10 08:37:31;;;;;;;73.20;43.08;;;3.40;99.90;;;;;;5047464;28;20032;-91
2021/03/10 08:39:58;;;;;;;79.45;44.13;;;3.30;99.90;;;;;;5057522;28;20024;-93
2021/03/10 08:42:24;;;;;;;70.88;41.80;;;3.40;99.90;;;;;;5047718;28;20055;-92
2021/03/10 08:44:51;;;;;;;72.55;42.88;;;3.50;99.90;;;;;;5068412;27;20024;-92
2021/03/10 08:47:20;;;;;;;73.18;41.60;;;3.50;99.90;;;;;;5046860;28;20021;-93
2021/03/10 08:49:59;;;;;;;71.43;42.00;;;3.60;99.90;;;;;;5042616;28;20051;-93
2021/03/10 08:52:27;;;;;;;74.07;42.72;;;3.50;99.90;;;;;;5053956;28;20032;-93
2021/03/10 08:54:59;;;;;;;72.20;43.63;;;3.40;99.90;;;;;;5054771;28;20024;-93
2021/03/10 08:57:27;;;;;;;;;;;3.40;99.90;;;;;;5054746;28;20020;-94
2021/03/10 08:59:52;;;;;;;75.78;42.03;;;3.40;99.90;;;;;;5053745;28;19922;-94
2021/03/10 09:02:30;;;;;;;78.85;43.25;;;3.30;99.90;;;;;;5058705;28;20036;-93
2021/03/10 09:04:57;;;;;;;74.05;41.85;;;3.30;99.90;;;;;;5045448;28;20477;-93
2021/03/10 09:07:24;;;;;;;73.72;41.50;;;3.50;99.90;;;;;;5049989;28;20028;-94
2021/03/10 09:09:55;;;;;;;73.65;41.90;;;3.60;99.90;;;;;;5051174;28;20492;-93
2021/03/10 09:12:21;;;;;;;81.18;44.72;;;3.40;99.90;;;;;;5044995;28;20035;-93
2021/03/10 09:14:47;;;;;;;74.32;40.40;;;3.40;99.90;;;;;;5055223;28;20039;-93
2021/03/10 09:17:13;;;;;;;71.88;40.90;;;3.40;99.90;;;;;;5051902;28;20028;-93
2021/03/10 09:19:46;;;;;;;74.18;42.38;;;3.50;99.90;;;;;;5050120;28;20166;-93
2021/03/10 09:22:15;;;;;;;68.82;40.53;;;3.60;99.90;;;;;;5047506;28;20024;-93
2021/03/10 09:24:51;;;;;;;71.15;41.78;;;3.70;99.90;;;;;;5051639;28;20033;-93
2021/03/10 09:27:18;;;;;;;67.32;39.20;;;3.90;99.90;;;;;;5048835;28;20078;-93
2021/03/10 09:29:44;;;;;;;64.35;38.58;;;4.00;99.90;;;;;;5054448;28;20507;-93
2021/03/10 09:32:10;;;;;;;66.57;39.72;;;4.10;99.90;;;;;;5053247;28;20027;-94
2021/03/10 09:34:36;;;;;;;68.50;39.65;;;4.10;99.90;;;;;;5045820;28;20393;-93
2021/03/10 09:37:07;;;;;;;64.57;38.50;;;4.20;99.90;;;;;;5043546;28;20597;-93
2021/03/10 09:39:47;;;;;;;66.85;39.65;;;3.90;99.90;;;;;;5050996;28;20032;-94
2021/03/10 09:42:17;;;;;;;69.50;40.75;;;4.00;99.90;;;;;;5057331;28;20016;-94
2021/03/10 09:44:49;;;;;;;68.15;39.13;;;3.90;99.90;;;;;;5056103;28;20023;-94
2021/03/10 09:47:21;;;;;;;;;;;4.00;99.90;;;;;;5049661;28;20028;-94
2021/03/10 09:49:56;;;;;;;63.38;37.95;;;4.10;99.90;;;;;;5050033;28;19927;-93
2021/03/10 09:52:39;;;;;;;65.28;39.17;;;4.00;99.90;;;;;;5056844;28;20047;-94
2021/03/10 09:55:09;;;;;;;61.55;36.75;;;4.30;99.90;;;;;;5051898;28;20565;-93
2021/03/10 09:57:37;;;;;;;63.30;38.08;;;4.50;99.90;;;;;;5047988;28;20024;-93
2021/03/10 10:00:16;;;;;;;64.82;37.58;;;4.70;99.90;;;;;;5057250;28;20032;-93
2021/03/10 10:02:55;;;;;;;63.05;36.72;;;4.80;99.90;;;;;;5019720;28;20489;-94
2021/03/10 10:05:23;;;;;;;54.78;33.97;;;5.00;99.90;;;;;;5055463;28;20026;-93
2021/03/10 10:07:49;;;;;;;57.10;35.08;;;5.40;99.90;;;;;;5054203;28;20408;-94
2021/03/10 10:10:17;;;;;;;60.50;36.10;;;5.30;99.90;;;;;;5047145;28;20500;-93
2021/03/10 10:12:47;;;;;;;57.10;35.15;;;5.20;99.90;;;;;;5050735;28;20077;-93
2021/03/10 10:15:17;;;;;;;59.22;34.88;;;5.10;99.90;;;;;;5061040;28;20028;-94
2021/03/10 10:17:51;;;;;;;57.72;34.60;;;5.00;99.90;;;;;;5063245;28;20584;-93
2021/03/10 10:20:19;;;;;;;56.35;35.97;;;4.80;99.90;;;;;;5066685;28;20088;-95
2021/03/10 10:22:46;;;;;;;57.83;34.45;;;5.00;99.90;;;;;;5070302;28;20032;-95
2021/03/10 10:25:13;;;;;;;66.47;36.90;;;5.10;99.90;;;;;;5060187;28;20032;-95
2021/03/10 10:27:40;;;;;;;58.28;33.22;;;4.80;99.90;;;;;;5063516;28;20028;-95
2021/03/10 10:30:08;;;;;;;52.40;33.35;;;5.10;99.90;;;;;;5061582;28;20024;-95
2021/03/10 10:32:38;;;;;;;65.20;36.25;;;5.10;99.90;;;;;;5064678;28;20536;-94
2021/03/10 10:35:04;;;;;;;58.42;34.30;;;5.20;99.90;;;;;;5060766;28;20115;-95
2021/03/10 10:37:29;;;;;;;57.33;33.92;;;5.30;99.90;;;;;;5064461;28;20044;-95
2021/03/10 10:39:55;;;;;;;54.80;33.00;;;5.00;99.90;;;;;;5066388;28;20031;-95
2021/03/10 10:42:21;;;;;;;55.40;33.40;;;4.90;99.90;;;;;;5065556;28;20020;-95
2021/03/10 10:44:49;;;;;;;48.63;30.67;;;4.90;99.90;;;;;;5060902;28;20070;-94
2021/03/10 10:47:15;;;;;;;50.85;31.77;;;5.20;99.90;;;;;;5053928;28;20085;-94
2021/03/10 10:49:41;;;;;;;54.28;32.55;;;5.30;99.90;;;;;;5054930;28;20024;-93
2021/03/10 10:52:07;;;;;;;57.05;32.60;;;5.20;99.90;;;;;;5053707;28;20077;-94
2021/03/10 10:54:33;;;;;;;58.20;36.35;;;4.90;99.90;;;;;;5053303;28;20052;-96
2021/03/10 10:56:58;;;;;;;57.75;33.55;;;5.00;99.90;;;;;;5051518;28;20016;-94
2021/03/10 10:59:24;;;;;;;56.42;33.95;;;5.00;99.90;;;;;;5055107;28;20034;-94
2021/03/10 11:01:50;;;;;;;66.13;37.22;;;4.90;99.90;;;;;;5053723;28;20012;-94
2021/03/10 11:04:16;;;;;;;53.25;34.65;;;4.90;99.90;;;;;;5049342;28;20051;-94
2021/03/10 11:06:41;;;;;;;49.50;30.88;;;5.00;99.90;;;;;;5055252;28;20497;-94
2021/03/10 11:09:07;;;;;;;48.92;30.98;;;5.20;99.90;;;;;;5058611;28;20024;-94
2021/03/10 11:11:33;;;;;;;53.35;32.60;;;5.50;99.90;;;;;;5057194;28;20417;-94
2021/03/10 11:13:58;;;;;;;51.40;30.67;;;5.80;99.90;;;;;;5062114;28;20031;-95
2021/03/10 11:16:24;;;;;;;51.97;30.52;;;5.60;99.90;;;;;;5062267;28;20028;-94
2021/03/10 11:18:51;;;;;;;51.60;32.65;;;5.40;99.90;;;;;;5053355;28;20044;-94
2021/03/10 11:21:17;;;;;;;51.78;31.85;;;4.90;99.90;;;;;;5051319;28;20027;-94
2021/03/10 11:23:43;;;;;;;55.60;33.97;;;4.70;99.90;;;;;;5054615;28;20114;-93
2021/03/10 11:26:09;;;;;;;62.20;32.70;;;4.50;99.90;;;;;;5063975;28;20040;-94
2021/03/10 11:28:34;;;;;;;56.90;32.70;;;4.50;99.90;;;;;;5067803;28;20055;-94
2021/03/10 11:31:00;;;;;;;52.63;31.80;;;4.60;99.90;;;;;;5055362;28;20028;-94
2021/03/10 11:33:26;;;;;;;77.10;39.08;;;4.60;99.90;;;;;;5062755;28;20036;-93
2021/03/10 11:35:53;;;;;;;69.57;38.33;;;4.30;99.90;;;;;;5046071;28;20037;-94
2021/03/10 11:38:18;;;;;;;60.63;35.22;;;4.30;99.90;;;;;;5052791;28;20024;-94
2021/03/10 11:40:44;;;;;;;60.15;33.35;;;4.20;99.90;;;;;;5057888;28;20028;-95
2021/03/10 11:43:10;;;;;;;66.90;35.22;;;4.00;99.90;;;;;;5053456;28;20076;-94
2021/03/10 11:45:36;;;;;;;57.80;34.65;;;4.00;99.90;;;;;;5052845;28;20107;-95
2021/03/10 11:48:02;;;;;;;53.35;32.95;;;4.20;99.90;;;;;;5065971;28;20032;-95
2021/03/10 11:50:28;;;;;;;54.95;32.35;;;4.20;99.90;;;;;;5066199;28;20043;-95
2021/03/10 11:52:53;;;;;;;59.33;34.22;;;4.30;99.90;;;;;;5055242;28;20031;-94
2021/03/10 11:55:20;;;;;;;55.50;33.60;;;4.20;99.90;;;;;;5065138;28;20028;-96
2021/03/10 11:57:46;;;;;;;60.65;36.45;;;4.10;99.90;;;;;;5062043;28;20021;-94
2021/03/10 12:00:13;;;;;;;59.20;34.10;;;4.30;99.90;;;;;;5055397;28;20031;-94
2021/03/10 12:02:38;;;;;;;53.95;32.92;;;4.50;99.90;;;;;;5053652;28;20089;-94
2021/03/10 12:05:04;;;;;;;58.53;33.65;;;4.70;99.90;;;;;;5051768;28;20024;-95
2021/03/10 12:07:30;;;;;;;59.88;32.92;;;4.90;99.90;;;;;;5060851;28;20035;-95
2021/03/10 12:09:56;;;;;;;55.65;32.65;;;5.10;99.90;;;;;;5063022;28;20510;-94
2021/03/10 12:12:22;;;;;;;53.92;31.27;;;5.30;99.90;;;;;;5064501;28;20039;-95
2021/03/10 12:14:47;;;;;;;50.65;31.73;;;5.10;99.90;;;;;;5056007;28;20496;-94
2021/03/10 12:17:13;;;;;;;47.15;30.52;;;5.10;99.90;;;;;;5048239;28;20460;-92
2021/03/10 12:19:39;;;;;;;51.65;30.25;;;5.00;99.90;;;;;;5051576;28;20381;-91
2021/03/10 12:22:07;;;;;;;58.55;32.88;;;4.90;99.90;;;;;;5046042;28;20027;-92
2021/03/10 12:24:33;;;;;;;55.25;31.15;;;4.80;99.90;;;;;;5073725;28;20032;-92
2021/03/10 12:26:59;;;;;;;52.40;31.10;;;4.70;99.90;;;;;;5055509;28;20043;-91
2021/03/10 12:29:24;;;;;;;50.58;27.83;;;4.90;99.90;;;;;;5052150;28;20020;-91
2021/03/10 12:31:50;;;;;;;49.28;29.70;;;5.10;99.90;;;;;;5051747;28;20029;-92
2021/03/10 12:34:16;;;;;;;50.20;31.63;;;5.10;99.90;;;;;;5047244;28;20037;-91
2021/03/10 12:36:41;;;;;;;48.65;29.92;;;5.00;99.90;;;;;;5056992;28;20032;-92
2021/03/10 12:39:07;;;;;;;49.20;27.50;;;5.10;99.90;;;;;;5056572;28;20027;-92
2021/03/10 12:41:34;;;;;;;48.83;30.35;;;5.10;99.90;;;;;;5072667;28;20027;-93
2021/03/10 12:44:00;;;;;;;53.25;30.45;;;5.10;99.90;;;;;;5055961;28;20108;-91
2021/03/10 12:46:26;;;;;;;48.67;29.45;;;4.90;99.90;;;;;;5051378;28;20029;-92